createdAt,value
2019-04-16T00:00:55.472Z,59.12
2019-04-16T00:03:24.809Z,59.32
2019-04-16T00:05:58.634Z,59.32
2019-04-16T00:08:28.415Z,59.87
2019-04-16T00:11:02.383Z,60.23
2019-04-16T00:13:33.341Z,60.31
2019-04-16T00:16:04.305Z,60.85
2019-04-16T00:18:33.671Z,60.90
2019-04-16T00:21:06.406Z,61.38
2019-04-16T00:23:54.557Z,60.92
2019-04-16T00:26:26.812Z,61.38
2019-04-16T00:28:55.167Z,61.62
2019-04-16T00:31:24.674Z,61.84
2019-04-16T00:33:54.064Z,62.32
2019-04-16T00:36:23.426Z,62.02
2019-04-16T00:38:54.671Z,62.30
2019-04-16T00:41:23.985Z,61.93
2019-04-16T00:43:53.273Z,62.06
2019-04-16T00:46:23.014Z,62.24
2019-04-16T00:48:52.313Z,61.68
2019-04-16T00:51:21.707Z,62.50
2019-04-16T00:53:51.059Z,62.04
2019-04-16T00:56:20.588Z,62.42
2019-04-16T00:58:52.146Z,62.46
2019-04-16T01:01:21.060Z,62.39
2019-04-16T01:03:50.457Z,62.91
2019-04-16T01:06:19.714Z,62.95
2019-04-16T01:08:54.842Z,63.07
2019-04-16T01:11:21.077Z,62.83
2019-04-16T01:13:50.383Z,63.17
2019-04-16T01:16:19.794Z,63.10
2019-04-16T01:18:49.189Z,63.11
2019-04-16T01:21:18.553Z,62.06
2019-04-16T01:23:49.326Z,61.99
2019-04-16T01:26:18.940Z,62.46
2019-04-16T01:29:08.267Z,62.26
2019-04-16T01:31:45.203Z,62.59
2019-04-16T01:34:28.479Z,62.43
2019-04-16T01:36:59.925Z,62.90
2019-04-16T01:39:30.949Z,63.30
2019-04-16T01:42:00.473Z,62.70
2019-04-16T01:44:30.786Z,63.43
2019-04-16T01:47:03.772Z,63.05
2019-04-16T01:49:31.432Z,63.32
2019-04-16T01:52:00.819Z,62.87
2019-04-16T01:54:30.188Z,62.78
2019-04-16T01:57:00.761Z,62.82
2019-04-16T01:59:35.620Z,63.06
2019-04-16T02:02:02.533Z,63.24
2019-04-16T02:04:33.003Z,63.23
2019-04-16T02:07:02.443Z,63.12
2019-04-16T02:09:34.597Z,63.10
2019-04-16T02:12:02.862Z,63.86
2019-04-16T02:14:32.134Z,63.62
2019-04-16T02:17:01.438Z,64.37
2019-04-16T02:19:32.879Z,64.30
2019-04-16T02:22:01.994Z,64.65
2019-04-16T02:24:31.514Z,65.25
2019-04-16T02:27:01.013Z,65.61
2019-04-16T02:29:30.689Z,65.45
2019-04-16T02:32:00.085Z,65.52
2019-04-16T02:34:29.357Z,65.44
2019-04-16T02:37:02.470Z,65.07
2019-04-16T02:39:47.189Z,65.95
2019-04-16T02:42:00.948Z,66.57
2019-04-16T02:44:30.202Z,65.73
2019-04-16T02:47:05.461Z,65.99
2019-04-16T02:49:30.575Z,65.99
2019-04-16T02:52:04.345Z,66.54
2019-04-16T02:54:47.815Z,66.28
2019-04-16T02:57:31.284Z,66.01
2019-04-16T03:00:03.797Z,65.76
2019-04-16T03:02:45.361Z,65.75
2019-04-16T03:05:16.483Z,66.15
2019-04-16T03:07:45.956Z,65.20
2019-04-16T03:10:15.268Z,65.38
2019-04-16T03:12:45.634Z,65.70
2019-04-16T03:15:16.672Z,65.30
2019-04-16T03:17:46.489Z,65.41
2019-04-16T03:20:20.919Z,65.08
2019-04-16T03:22:51.166Z,65.37
2019-04-16T03:25:20.466Z,65.53
2019-04-16T03:27:51.448Z,65.76
2019-04-16T03:30:20.835Z,65.65
2019-04-16T03:32:50.828Z,65.73
2019-04-16T03:35:25.365Z,65.58
2019-04-16T03:37:51.301Z,66.35
2019-04-16T03:40:24.782Z,65.83
2019-04-16T03:42:51.701Z,66.15
2019-04-16T03:45:21.038Z,65.88
2019-04-16T03:47:51.373Z,66.88
2019-04-16T03:50:21.352Z,66.62
2019-04-16T03:52:50.633Z,66.49
2019-04-16T03:55:25.388Z,66.48
2019-04-16T03:57:50.946Z,66.58
2019-04-16T04:00:20.313Z,65.65
2019-04-16T04:02:54.212Z,66.27
2019-04-16T04:05:20.671Z,65.68
2019-04-16T04:07:50.038Z,65.41
2019-04-16T04:10:30.560Z,65.38
2019-04-16T04:12:50.498Z,65.17
2019-04-16T04:15:19.886Z,65.22
2019-04-16T04:17:49.545Z,65.03
2019-04-16T04:20:19.371Z,65.08
2019-04-16T04:22:51.237Z,65.48
2019-04-16T04:25:20.797Z,64.97
2019-04-16T04:27:50.102Z,65.32
2019-04-16T04:30:21.361Z,65.48
2019-04-16T04:32:50.850Z,65.55
2019-04-16T04:35:22.127Z,65.48
2019-04-16T04:37:51.240Z,65.79
2019-04-16T04:40:20.538Z,65.56
2019-04-16T04:42:49.845Z,65.87
2019-04-16T04:45:19.119Z,65.64
2019-04-16T04:47:51.700Z,65.71
2019-04-16T04:50:19.712Z,66.17
2019-04-16T04:52:49.092Z,66.22
2019-04-16T04:55:18.612Z,65.63
2019-04-16T04:57:47.933Z,65.61
2019-04-16T05:00:17.254Z,66.06
2019-04-16T05:02:46.549Z,65.61
2019-04-16T05:05:18.341Z,66.28
2019-04-16T05:07:47.635Z,66.43
2019-04-16T05:10:16.910Z,65.86
2019-04-16T05:12:46.200Z,65.92
2019-04-16T05:15:15.807Z,65.50
2019-04-16T05:17:46.641Z,65.16
2019-04-16T05:20:17.560Z,65.56
2019-04-16T05:22:46.923Z,65.63
2019-04-16T05:25:16.231Z,64.62
2019-04-16T05:27:45.518Z,65.04
2019-04-16T05:30:19.937Z,65.16
2019-04-16T05:32:46.157Z,64.00
2019-04-16T05:35:15.456Z,63.79
2019-04-16T05:37:44.795Z,63.42
2019-04-16T05:40:14.231Z,61.56
2019-04-16T05:42:43.501Z,59.57
2019-04-16T05:45:12.976Z,58.97
2019-04-16T05:47:42.242Z,57.50
2019-04-16T05:50:11.752Z,57.52
2019-04-16T05:52:41.149Z,57.25
2019-04-16T05:55:29.434Z,58.31
2019-04-16T05:57:59.196Z,57.12
2019-04-16T06:00:41.683Z,56.32
2019-04-16T06:03:10.049Z,55.50
2019-04-16T06:05:39.488Z,54.71
2019-04-16T06:08:10.309Z,54.47
2019-04-16T06:10:40.147Z,53.64
2019-04-16T06:13:17.082Z,52.04
2019-04-16T06:15:50.257Z,52.89
2019-04-16T06:18:27.084Z,53.66
2019-04-16T06:21:06.705Z,53.80
2019-04-16T06:23:54.127Z,54.03
2019-04-16T06:26:27.545Z,55.57
2019-04-16T06:29:01.603Z,56.06
2019-04-16T06:31:41.690Z,56.31
2019-04-16T06:34:28.741Z,58.19
2019-04-16T06:37:00.717Z,58.65
2019-04-16T06:39:31.704Z,59.00
2019-04-16T06:42:05.532Z,57.84
2019-04-16T06:44:36.454Z,59.05
2019-04-16T06:47:16.118Z,59.01
2019-04-16T06:49:51.044Z,57.41
2019-04-16T06:52:28.107Z,56.30
2019-04-16T06:55:03.550Z,55.92
2019-04-16T06:57:40.384Z,55.59
2019-04-16T07:00:11.138Z,56.08
2019-04-16T07:03:02.122Z,55.21
2019-04-16T07:05:33.233Z,56.11
2019-04-16T07:08:17.887Z,55.99
2019-04-16T07:11:00.835Z,55.96
2019-04-16T07:13:30.157Z,54.23
2019-04-16T07:15:59.465Z,54.44
2019-04-16T07:18:28.750Z,54.08
2019-04-16T07:20:58.057Z,54.07
2019-04-16T07:23:27.470Z,54.49
2019-04-16T07:25:56.935Z,54.41
2019-04-16T07:28:27.902Z,53.38
2019-04-16T07:31:14.868Z,54.03
2019-04-16T07:33:59.106Z,54.06
2019-04-16T07:36:39.320Z,53.67
2019-04-16T07:39:29.898Z,52.97
2019-04-16T07:42:09.803Z,52.43
2019-04-16T07:44:40.551Z,53.63
2019-04-16T07:47:11.518Z,51.34
2019-04-16T07:49:45.165Z,51.51
2019-04-16T07:52:22.520Z,51.06
2019-04-16T07:55:02.443Z,50.30
2019-04-16T07:57:31.771Z,50.19
2019-04-16T08:00:01.130Z,47.01
2019-04-16T08:02:30.845Z,46.02
2019-04-16T08:05:01.304Z,45.25
2019-04-16T08:07:30.746Z,46.01
2019-04-16T08:10:02.790Z,44.27
2019-04-16T08:12:32.185Z,45.40
2019-04-16T08:15:13.366Z,44.91
2019-04-16T08:17:33.035Z,44.47
2019-04-16T08:20:02.638Z,44.38
2019-04-16T08:22:32.348Z,44.89
2019-04-16T08:25:04.181Z,43.90
2019-04-16T08:27:33.572Z,44.62
2019-04-16T08:30:04.939Z,43.69
2019-04-16T08:32:34.324Z,43.45
2019-04-16T08:35:04.108Z,44.09
2019-04-16T08:37:33.540Z,43.14
2019-04-16T08:40:02.820Z,43.50
2019-04-16T08:42:43.852Z,43.30
2019-04-16T08:45:07.366Z,42.87
2019-04-16T08:47:35.360Z,42.88
2019-04-16T08:50:05.166Z,42.19
2019-04-16T08:52:34.494Z,42.11
2019-04-16T08:55:04.026Z,41.72
2019-04-16T08:57:34.456Z,42.39
2019-04-16T09:00:11.323Z,41.51
2019-04-16T09:02:39.707Z,41.33
2019-04-16T09:05:11.695Z,39.65
2019-04-16T09:07:41.432Z,40.41
2019-04-16T09:10:19.033Z,40.18
2019-04-16T09:13:01.698Z,40.24
2019-04-16T09:15:27.093Z,38.67
2019-04-16T09:17:57.809Z,37.86
2019-04-16T09:20:28.742Z,35.46
2019-04-16T09:22:59.157Z,33.59
2019-04-16T09:25:36.237Z,31.88
2019-04-16T09:28:24.885Z,32.14
2019-04-16T09:30:59.182Z,32.68
2019-04-16T09:33:30.477Z,30.66
2019-04-16T09:36:21.067Z,31.14
2019-04-16T09:38:52.039Z,30.59
2019-04-16T09:41:22.978Z,28.60
2019-04-16T09:43:58.035Z,27.85
2019-04-16T09:46:49.785Z,29.20
2019-04-16T09:48:59.575Z,30.69
2019-04-16T09:51:29.008Z,29.60
2019-04-16T09:53:58.371Z,28.17
2019-04-16T09:56:29.484Z,26.21
2019-04-16T09:59:02.300Z,29.66
2019-04-16T10:01:41.272Z,25.65
2019-04-16T10:04:15.208Z,27.66
2019-04-16T10:06:44.502Z,26.84
2019-04-16T10:09:13.831Z,26.23
2019-04-16T10:11:43.185Z,27.76
2019-04-16T10:14:12.490Z,25.70
2019-04-16T10:16:42.014Z,25.69
2019-04-16T10:19:11.292Z,24.64
2019-04-16T10:21:40.688Z,25.17
2019-04-16T10:24:15.646Z,24.21
2019-04-16T10:26:46.755Z,23.85
2019-04-16T10:29:17.687Z,26.64
2019-04-16T10:31:47.204Z,24.74
2019-04-16T10:34:16.575Z,24.83
2019-04-16T10:36:45.926Z,25.29
2019-04-16T10:39:19.674Z,24.93
2019-04-16T10:41:56.287Z,26.12
2019-04-16T10:44:44.380Z,26.44
2019-04-16T10:47:16.739Z,24.17
2019-04-16T10:49:53.646Z,24.06
2019-04-16T10:52:27.432Z,23.92
2019-04-16T10:54:58.704Z,23.13
2019-04-16T10:57:32.450Z,21.95
2019-04-16T11:00:03.431Z,22.69
2019-04-16T11:02:36.050Z,23.91
2019-04-16T11:05:15.226Z,23.90
2019-04-16T11:07:52.810Z,25.04
2019-04-16T11:10:22.078Z,23.60
2019-04-16T11:12:51.532Z,23.01
2019-04-16T11:15:22.519Z,25.10
2019-04-16T11:17:51.975Z,26.20
2019-04-16T11:20:21.404Z,26.29
2019-04-16T11:22:50.993Z,26.10
2019-04-16T11:25:20.370Z,25.32
2019-04-16T11:27:49.942Z,24.44
2019-04-16T11:30:32.927Z,23.21
2019-04-16T11:33:02.239Z,24.81
2019-04-16T11:35:31.706Z,25.18
2019-04-16T11:38:01.015Z,24.79
2019-04-16T11:40:30.308Z,25.82
2019-04-16T11:42:59.718Z,25.05
2019-04-16T11:45:29.227Z,24.45
2019-04-16T11:47:58.580Z,24.18
2019-04-16T11:50:29.005Z,25.82
2019-04-16T11:52:58.826Z,24.26
2019-04-16T11:55:28.122Z,24.86
2019-04-16T11:57:57.450Z,24.13
2019-04-16T12:00:28.593Z,23.73
2019-04-16T12:03:11.276Z,23.17
2019-04-16T12:05:42.190Z,24.14
2019-04-16T12:08:18.947Z,25.14
2019-04-16T12:10:58.670Z,24.28
2019-04-16T12:13:32.268Z,26.71
2019-04-16T12:16:06.219Z,25.83
2019-04-16T12:18:37.373Z,27.03
2019-04-16T12:21:11.350Z,26.88
2019-04-16T12:23:58.889Z,25.69
2019-04-16T12:26:29.872Z,26.00
2019-04-16T12:29:07.029Z,24.97
2019-04-16T12:31:40.857Z,27.35
2019-04-16T12:34:14.267Z,25.57
2019-04-16T12:37:01.826Z,24.39
2019-04-16T12:39:36.236Z,26.08
2019-04-16T12:42:23.652Z,24.84
2019-04-16T12:45:10.087Z,25.71
2019-04-16T12:47:41.070Z,24.03
2019-04-16T12:50:16.756Z,25.00
2019-04-16T12:53:04.436Z,25.86
2019-04-16T12:55:41.117Z,25.59
2019-04-16T12:58:12.026Z,27.18
2019-04-16T13:00:59.738Z,26.08
2019-04-16T13:03:33.328Z,25.32
2019-04-16T13:06:16.106Z,25.66
2019-04-16T13:08:47.465Z,24.78
2019-04-16T13:11:18.946Z,25.28
2019-04-16T13:13:52.901Z,24.90
2019-04-16T13:16:26.657Z,22.81
2019-04-16T13:19:06.869Z,24.17
2019-04-16T13:21:50.687Z,22.82
2019-04-16T13:24:27.805Z,23.00
2019-04-16T13:26:58.940Z,23.70
2019-04-16T13:29:30.569Z,23.95
2019-04-16T13:32:00.079Z,25.20
2019-04-16T13:34:30.914Z,22.12
2019-04-16T13:37:00.975Z,21.05
2019-04-16T13:39:32.287Z,22.82
2019-04-16T13:42:01.925Z,23.95
2019-04-16T13:44:37.642Z,24.58
2019-04-16T13:47:07.019Z,24.73
2019-04-16T13:49:37.994Z,24.11
2019-04-16T13:52:07.320Z,21.60
2019-04-16T13:54:38.313Z,20.52
2019-04-16T13:57:12.293Z,21.38
2019-04-16T14:00:03.198Z,22.01
2019-04-16T14:02:51.052Z,20.34
2019-04-16T14:05:21.953Z,21.34
2019-04-16T14:07:51.275Z,22.68
2019-04-16T14:10:20.636Z,22.49
2019-04-16T14:12:50.393Z,22.58
2019-04-16T14:15:31.732Z,22.60
2019-04-16T14:17:53.388Z,21.19
2019-04-16T14:20:23.046Z,22.48
2019-04-16T14:22:53.669Z,22.36
2019-04-16T14:25:23.754Z,22.95
2019-04-16T14:27:55.364Z,25.35
2019-04-16T14:30:27.466Z,22.76
2019-04-16T14:32:56.837Z,23.42
2019-04-16T14:35:33.436Z,25.01
2019-04-16T14:38:00.532Z,23.90
2019-04-16T14:40:29.896Z,26.00
2019-04-16T14:42:59.341Z,26.37
2019-04-16T14:45:34.769Z,25.90
2019-04-16T14:48:04.955Z,25.56
2019-04-16T14:50:33.403Z,26.77
2019-04-16T14:53:02.972Z,26.51
2019-04-16T14:55:37.017Z,27.85
2019-04-16T14:58:24.169Z,27.78
2019-04-16T15:00:55.160Z,25.47
2019-04-16T15:03:43.438Z,26.15
2019-04-16T15:06:31.183Z,28.18
2019-04-16T15:09:02.136Z,26.51
2019-04-16T15:11:42.886Z,26.53
2019-04-16T15:14:13.733Z,26.59
2019-04-16T15:16:51.938Z,27.38
2019-04-16T15:19:25.760Z,27.34
2019-04-16T15:21:58.608Z,27.38
2019-04-16T15:24:32.439Z,27.36
2019-04-16T15:27:18.771Z,27.47
2019-04-16T15:29:56.465Z,29.64
2019-04-16T15:32:28.478Z,30.17
2019-04-16T15:34:58.629Z,30.11
2019-04-16T15:37:29.578Z,29.09
2019-04-16T15:40:00.827Z,29.42
2019-04-16T15:42:48.126Z,28.54
2019-04-16T15:45:32.781Z,27.60
2019-04-16T15:48:14.874Z,28.45
2019-04-16T15:50:45.664Z,27.44
2019-04-16T15:53:16.740Z,26.95
2019-04-16T15:55:53.488Z,27.54
2019-04-16T15:58:32.504Z,29.51
2019-04-16T16:01:03.418Z,29.91
2019-04-16T16:03:37.115Z,30.35
2019-04-16T16:06:08.277Z,29.60
2019-04-16T16:08:45.214Z,30.47
2019-04-16T16:11:17.293Z,30.53
2019-04-16T16:13:47.761Z,30.43
2019-04-16T16:16:18.022Z,32.21
2019-04-16T16:18:48.420Z,31.93
2019-04-16T16:21:17.713Z,32.72
2019-04-16T16:23:47.338Z,33.06
2019-04-16T16:26:16.936Z,32.65
2019-04-16T16:28:46.333Z,32.21
2019-04-16T16:31:17.223Z,32.45
2019-04-16T16:33:46.723Z,32.50
2019-04-16T16:36:16.231Z,32.73
2019-04-16T16:38:48.245Z,33.33
2019-04-16T16:41:16.688Z,34.59
2019-04-16T16:43:45.984Z,34.19
2019-04-16T16:46:20.192Z,35.34
2019-04-16T16:48:51.754Z,35.39
2019-04-16T16:51:22.992Z,35.97
2019-04-16T16:54:09.841Z,36.18
2019-04-16T16:56:56.047Z,36.57
2019-04-16T16:59:32.913Z,36.22
2019-04-16T17:02:21.991Z,37.33
2019-04-16T17:04:52.944Z,36.47
2019-04-16T17:07:22.306Z,37.57
2019-04-16T17:09:51.702Z,37.93
2019-04-16T17:12:20.978Z,37.24
2019-04-16T17:14:50.286Z,37.65
2019-04-16T17:17:19.585Z,37.94
2019-04-16T17:19:50.824Z,38.81
2019-04-16T17:22:21.396Z,38.78
2019-04-16T17:24:50.784Z,39.20
2019-04-16T17:27:21.034Z,39.32
2019-04-16T17:29:50.922Z,38.82
2019-04-16T17:32:22.004Z,39.00
2019-04-16T17:34:51.454Z,40.42
2019-04-16T17:37:27.423Z,40.68
2019-04-16T17:39:57.509Z,41.95
2019-04-16T17:42:28.747Z,42.15
2019-04-16T17:45:16.158Z,41.19
2019-04-16T17:48:02.292Z,43.14
2019-04-16T17:50:40.253Z,41.90
2019-04-16T18:00:37.670Z,43.53
2019-04-16T18:03:14.870Z,44.54
2019-04-16T18:05:48.745Z,44.56
2019-04-16T18:08:22.751Z,44.58
2019-04-16T18:10:54.015Z,45.04
2019-04-16T18:13:24.974Z,45.36
2019-04-16T18:15:56.116Z,46.25
2019-04-16T18:18:30.152Z,45.77
2019-04-16T18:21:13.452Z,46.24
2019-04-16T18:24:00.833Z,46.75
2019-04-16T18:26:47.724Z,46.97
2019-04-16T18:29:18.902Z,47.69
2019-04-16T18:31:57.386Z,47.43
2019-04-16T18:34:43.476Z,47.61
2019-04-16T18:37:28.376Z,48.20
2019-04-16T18:40:05.028Z,48.72
2019-04-16T18:42:35.069Z,48.87
2019-04-16T18:45:06.099Z,49.62
2019-04-16T18:47:37.140Z,50.38
2019-04-16T18:50:08.804Z,50.75
2019-04-16T18:52:38.191Z,51.38
2019-04-16T18:55:08.126Z,52.12
2019-04-16T18:57:38.354Z,52.85
2019-04-16T19:00:10.368Z,53.45
2019-04-16T19:02:42.075Z,54.11
2019-04-16T19:05:12.279Z,53.96
2019-04-16T19:07:41.818Z,54.27
2019-04-16T19:10:11.141Z,54.73
2019-04-16T19:12:40.554Z,55.16
2019-04-16T19:15:09.907Z,55.41
2019-04-16T19:17:39.227Z,56.12
2019-04-16T19:20:08.631Z,55.93
2019-04-16T19:22:38.091Z,56.10
2019-04-16T19:25:08.994Z,56.18
2019-04-16T19:27:40.240Z,56.34
2019-04-16T19:30:10.657Z,56.68
2019-04-16T19:32:39.981Z,57.09
2019-04-16T19:35:11.448Z,57.36
2019-04-16T19:37:40.498Z,57.71
2019-04-16T19:40:16.064Z,58.20
2019-04-16T19:42:44.240Z,58.15
2019-04-16T19:45:13.746Z,58.55
2019-04-16T19:47:44.951Z,58.44
2019-04-16T19:50:14.420Z,58.42
2019-04-16T19:52:45.726Z,58.31
2019-04-16T19:55:18.098Z,58.21
2019-04-16T19:57:48.982Z,58.22
2019-04-16T20:00:22.874Z,58.33
2019-04-16T20:02:49.949Z,58.55
2019-04-16T20:05:19.399Z,58.66
2019-04-16T20:07:49.135Z,58.86
2019-04-16T20:10:20.116Z,59.16
2019-04-16T20:12:49.507Z,59.19
2019-04-16T20:15:18.786Z,59.20
2019-04-16T20:17:48.294Z,59.35
2019-04-16T20:20:17.679Z,59.70
2019-04-16T20:22:49.985Z,59.85
2019-04-16T20:25:19.449Z,60.20
2019-04-16T20:27:50.328Z,60.46
2019-04-16T20:30:23.065Z,60.33
2019-04-16T20:32:50.753Z,60.43
2019-04-16T20:35:20.067Z,60.81
2019-04-16T20:37:53.375Z,60.88
2019-04-16T20:40:22.661Z,61.10
2019-04-16T20:42:52.003Z,61.28
2019-04-16T20:45:21.454Z,61.49
2019-04-16T20:47:50.775Z,61.44
2019-04-16T20:50:20.851Z,61.61
2019-04-16T20:52:52.021Z,61.60
2019-04-16T20:55:21.389Z,61.70
2019-04-16T20:57:55.320Z,61.76
2019-04-16T21:00:26.026Z,62.08
2019-04-16T21:02:55.416Z,61.96
2019-04-16T21:05:24.719Z,62.19
2019-04-16T21:07:54.249Z,62.20
2019-04-16T21:10:23.518Z,62.39
2019-04-16T21:12:54.871Z,62.45
2019-04-16T21:15:27.456Z,62.46
2019-04-16T21:17:54.965Z,62.88
2019-04-16T21:20:24.537Z,63.06
2019-04-16T21:22:57.615Z,63.12
2019-04-16T21:25:25.126Z,63.20
2019-04-16T21:27:56.193Z,63.29
2019-04-16T21:30:25.559Z,63.44
2019-04-16T21:32:59.583Z,63.68
2019-04-16T21:35:45.741Z,63.78
2019-04-16T21:38:19.438Z,63.88
2019-04-16T21:40:48.739Z,64.24
2019-04-16T21:43:18.150Z,64.12
2019-04-16T21:45:51.746Z,63.96
2019-04-16T21:48:23.795Z,63.82
2019-04-16T21:50:54.167Z,64.11
2019-04-16T21:53:24.545Z,63.78
2019-04-16T21:55:55.405Z,63.76
2019-04-16T21:58:25.123Z,64.07
2019-04-16T22:00:59.761Z,64.22
2019-04-16T22:03:31.579Z,64.40
2019-04-16T22:06:02.536Z,64.36
2019-04-16T22:08:31.943Z,64.33
2019-04-16T22:11:01.305Z,64.04
2019-04-16T22:13:30.831Z,64.61
2019-04-16T22:16:00.167Z,64.38
2019-04-16T22:18:29.669Z,64.45
2019-04-16T22:20:59.016Z,64.74
2019-04-16T22:23:28.419Z,64.89
2019-04-16T22:26:01.347Z,65.02
2019-04-16T22:28:29.441Z,65.20
2019-04-16T22:30:58.799Z,65.35
2019-04-16T22:33:28.242Z,65.52
2019-04-16T22:35:57.528Z,66.06
2019-04-16T22:38:28.516Z,65.96
2019-04-16T22:40:59.479Z,66.51
2019-04-16T22:43:46.920Z,66.16
2019-04-16T22:46:27.059Z,66.33
2019-04-16T22:48:57.653Z,66.28
2019-04-16T22:51:26.977Z,66.97
2019-04-16T22:53:56.586Z,67.13
2019-04-16T22:56:28.391Z,67.18
2019-04-16T22:58:58.478Z,67.16
2019-04-16T23:01:29.410Z,67.26
2019-04-16T23:03:58.956Z,67.32
2019-04-16T23:06:28.329Z,67.25
2019-04-16T23:08:57.741Z,67.43
2019-04-16T23:11:27.186Z,67.90
2019-04-16T23:13:57.038Z,67.86
2019-04-16T23:16:26.456Z,67.96
2019-04-16T23:18:56.126Z,68.50
2019-04-16T23:21:25.469Z,68.36
2019-04-16T23:23:54.740Z,68.49
2019-04-16T23:26:24.124Z,68.42
2019-04-16T23:28:53.599Z,68.20
2019-04-16T23:31:23.728Z,68.39
2019-04-16T23:33:53.168Z,68.24
2019-04-16T23:36:22.615Z,68.26
2019-04-16T23:38:51.899Z,68.48
2019-04-16T23:41:21.235Z,68.69
2019-04-16T23:43:54.949Z,68.63
2019-04-16T23:46:34.664Z,68.87
2019-04-16T23:49:16.527Z,68.97
2019-04-16T23:51:49.436Z,69.12
2019-04-16T23:54:20.511Z,69.84
2019-04-16T23:56:57.380Z,69.90
2019-04-16T23:59:32.607Z,70.15
